Time,TemperatureF,DewpointF,PressureIn,WindDirection,WindDirectionDegrees,WindSpeedMPH,WindSpeedGustMPH,Humidity,HourlyPrecipIn,Conditions,Clouds,dailyrainin,SoftwareType,DateUTC
2013-01-10 00:05:00,17.6,12.5,29.98,South,180,0.0,0.0,80,0.00,CLR,,0.00,WeatherDisplay:10.37,2013-01-10 06:05:00,
2013-01-10 00:10:00,17.6,12.5,29.98,South,180,0.0,0.0,80,0.00,CLR,,0.00,WeatherDisplay:10.37,2013-01-10 06:10:00,
2013-01-10 00:15:00,17.6,12.5,29.98,South,180,0.0,0.0,80,0.00,CLR,,0.00,WeatherDisplay:10.37,2013-01-10 06:15:00,
2013-01-10 00:20:00,17.4,12.3,29.98,South,180,0.0,0.0,80,0.00,CLR,,0.00,WeatherDisplay:10.37,2013-01-10 06:20:00,
2013-01-10 00:25:00,17.3,12.2,29.98,South,180,0.0,0.0,80,0.00,CLR,,0.00,WeatherDisplay:10.37,2013-01-10 06:25:00,
2013-01-10 00:30:00,17.1,12.0,29.98,South,180,0.0,0.0,80,0.00,CLR,,0.00,WeatherDisplay:10.37,2013-01-10 06:30:00,
2013-01-10 00:35:00,17.1,12.0,29.98,South,180,0.0,0.0,80,0.00,CLR,,0.00,WeatherDisplay:10.37,2013-01-10 06:35:00,
2013-01-10 00:40:00,16.9,11.8,29.99,South,180,0.0,0.0,80,0.00,CLR,,0.00,WeatherDisplay:10.37,2013-01-10 06:40:00,
2013-01-10 00:45:00,16.9,11.8,29.99,South,180,0.0,0.0,80,0.00,CLR,,0.00,WeatherDisplay:10.37,2013-01-10 06:45:00,
2013-01-10 00:50:00,16.9,11.8,29.99,South,180,0.0,0.0,80,0.00,CLR,,0.00,WeatherDisplay:10.37,2013-01-10 06:50:00,
2013-01-10 00:55:00,16.7,11.6,29.99,South,180,0.0,0.0,80,0.00,CLR,,0.00,WeatherDisplay:10.37,2013-01-10 06:55:00,
2013-01-10 01:00:00,16.5,11.4,29.99,South,180,0.0,0.0,80,0.00,CLR,,0.00,WeatherDisplay:10.37,2013-01-10 07:00:00,
2013-01-10 01:05:00,16.3,11.3,29.99,South,180,0.0,0.0,80,0.00,CLR,,0.00,WeatherDisplay:10.37,2013-01-10 07:05:00,
2013-01-10 01:10:00,16.3,11.3,29.99,South,180,0.0,0.0,80,0.00,CLR,,0.00,WeatherDisplay:10.37,2013-01-10 07:10:00,
2013-01-10 01:15:00,16.7,11.9,29.99,South,180,0.0,0.0,81,0.00,CLR,,0.00,WeatherDisplay:10.37,2013-01-10 07:15:00,
2013-01-10 01:20:00,16.7,11.9,29.99,South,180,0.0,0.0,81,0.00,CLR,,0.00,WeatherDisplay:10.37,2013-01-10 07:20:00,
2013-01-10 01:25:00,16.9,12.1,29.99,South,180,0.0,0.0,81,0.00,CLR,,0.00,WeatherDisplay:10.37,2013-01-10 07:25:00,
2013-01-10 01:30:00,16.9,12.1,29.99,South,180,0.0,0.0,81,0.00,CLR,,0.00,WeatherDisplay:10.37,2013-01-10 07:30:00,
2013-01-10 01:35:00,17.1,12.2,29.98,South,180,0.0,0.0,81,0.00,CLR,,0.00,WeatherDisplay:10.37,2013-01-10 07:35:00,
2013-01-10 01:40:00,17.1,12.2,29.99,South,172,0.0,0.0,81,0.00,CLR,,0.00,WeatherDisplay:10.37,2013-01-10 07:40:00,
2013-01-10 01:45:00,17.1,12.2,29.99,SSE,158,0.0,0.0,81,0.00,CLR,,0.00,WeatherDisplay:10.37,2013-01-10 07:45:00,
2013-01-10 01:50:00,17.4,12.6,29.99,SE,129,0.0,0.0,81,0.00,CLR,,0.00,WeatherDisplay:10.37,2013-01-10 07:50:00,
2013-01-10 01:55:00,17.7,12.8,29.99,ESE,120,0.0,0.0,81,0.00,CLR,,0.00,WeatherDisplay:10.37,2013-01-10 07:55:00,
2013-01-10 02:00:00,18.0,13.4,29.98,SE,136,0.0,0.0,82,0.00,CLR,,0.00,WeatherDisplay:10.37,2013-01-10 08:00:00,
2013-01-10 02:05:00,18.5,13.9,29.98,SE,140,0.0,0.0,82,0.00,CLR,,0.00,WeatherDisplay:10.37,2013-01-10 08:05:00,
2013-01-10 02:10:00,18.5,13.9,29.98,ESE,123,0.0,0.0,82,0.00,CLR,,0.00,WeatherDisplay:10.37,2013-01-10 08:10:00,
2013-01-10 02:15:00,18.9,14.3,29.99,SE,129,0.0,0.0,82,0.00,CLR,,0.00,WeatherDisplay:10.37,2013-01-10 08:15:00,
2013-01-10 02:20:00,18.9,14.3,29.98,SE,138,0.0,0.0,82,0.00,CLR,,0.00,WeatherDisplay:10.37,2013-01-10 08:20:00,
2013-01-10 02:25:00,19.0,14.4,29.98,SE,125,0.0,0.0,82,0.00,CLR,,0.00,WeatherDisplay:10.37,2013-01-10 08:25:00,
2013-01-10 02:30:00,19.4,14.5,29.98,SE,127,0.0,0.0,81,0.00,CLR,,0.00,WeatherDisplay:10.37,2013-01-10 08:30:00,
2013-01-10 02:35:00,19.4,14.5,29.99,SE,146,0.0,0.0,81,0.00,CLR,,0.00,WeatherDisplay:10.37,2013-01-10 08:35:00,
2013-01-10 02:40:00,19.8,15.2,29.98,ESE,113,6.0,6.0,82,0.00,CLR,,0.00,WeatherDisplay:10.37,2013-01-10 08:40:00,
2013-01-10 02:45:00,20.3,15.7,29.99,SE,146,1.0,6.0,82,0.00,CLR,,0.00,WeatherDisplay:10.37,2013-01-10 08:45:00,
2013-01-10 02:50:00,20.7,16.0,29.98,South,171,0.0,1.0,82,0.00,CLR,,0.00,WeatherDisplay:10.37,2013-01-10 08:50:00,
2013-01-10 02:55:00,21.3,16.7,29.98,SSE,160,0.0,0.0,82,0.00,CLR,,0.00,WeatherDisplay:10.37,2013-01-10 08:55:00,
2013-01-10 03:00:00,21.9,17.2,29.97,SE,143,0.0,0.0,82,0.00,CLR,,0.00,WeatherDisplay:10.37,2013-01-10 09:00:00,
2013-01-10 03:05:00,21.9,17.3,29.97,ESE,123,0.0,0.0,82,0.00,CLR,,0.00,WeatherDisplay:10.37,2013-01-10 09:05:00,
2013-01-10 03:10:00,21.9,17.0,29.98,ESE,112,0.0,0.0,81,0.00,CLR,,0.00,WeatherDisplay:10.37,2013-01-10 09:10:00,
2013-01-10 03:15:00,21.6,16.7,29.97,ESE,118,0.0,0.0,81,0.00,CLR,,0.00,WeatherDisplay:10.37,2013-01-10 09:15:00,
2013-01-10 03:20:00,21.6,16.6,29.97,SE,133,0.0,0.0,81,0.00,CLR,,0.00,WeatherDisplay:10.37,2013-01-10 09:20:00,
2013-01-10 03:25:00,21.4,16.5,29.97,SE,140,0.0,0.0,81,0.00,CLR,,0.00,WeatherDisplay:10.37,2013-01-10 09:25:00,
2013-01-10 03:30:00,21.4,16.5,29.97,SE,138,0.0,0.0,81,0.00,CLR,,0.00,WeatherDisplay:10.37,2013-01-10 09:30:00,
2013-01-10 03:35:00,21.2,16.3,29.97,SE,135,0.0,0.0,81,0.00,CLR,,0.00,WeatherDisplay:10.37,2013-01-10 09:35:00,
2013-01-10 03:40:00,20.9,16.0,29.96,SE,135,0.0,0.0,81,0.00,CLR,,0.00,WeatherDisplay:10.37,2013-01-10 09:40:00,
2013-01-10 03:45:00,20.8,15.9,29.96,SE,140,0.0,0.0,81,0.00,CLR,,0.00,WeatherDisplay:10.37,2013-01-10 09:45:00,
2013-01-10 03:50:00,20.7,15.8,29.96,SSE,152,0.0,0.0,81,0.00,CLR,,0.00,WeatherDisplay:10.37,2013-01-10 09:50:00,
2013-01-10 03:55:00,20.7,15.8,29.96,SSE,158,0.0,0.0,81,0.00,CLR,,0.00,WeatherDisplay:10.37,2013-01-10 09:55:00,
2013-01-10 04:00:00,20.8,15.9,29.96,SSE,158,0.0,0.0,81,0.00,CLR,,0.00,WeatherDisplay:10.37,2013-01-10 10:00:00,
2013-01-10 04:05:00,21.0,16.1,29.96,SE,146,0.0,0.0,81,0.00,CLR,,0.00,WeatherDisplay:10.37,2013-01-10 10:05:00,
2013-01-10 04:10:00,21.1,16.2,29.96,SE,130,0.0,0.0,81,0.00,CLR,,0.00,WeatherDisplay:10.37,2013-01-10 10:10:00,
2013-01-10 04:15:00,21.2,16.3,29.95,SE,125,0.0,0.0,81,0.00,CLR,,0.00,WeatherDisplay:10.37,2013-01-10 10:15:00,
2013-01-10 04:20:00,21.2,16.3,29.95,SE,132,0.0,0.0,81,0.00,CLR,,0.00,WeatherDisplay:10.37,2013-01-10 10:20:00,
2013-01-10 04:25:00,21.2,16.3,29.95,SE,142,0.0,0.0,81,0.00,CLR,,0.00,WeatherDisplay:10.37,2013-01-10 10:25:00,
2013-01-10 04:30:00,21.2,16.3,29.95,SSE,155,0.0,0.0,81,0.00,CLR,,0.00,WeatherDisplay:10.37,2013-01-10 10:30:00,
2013-01-10 04:35:00,21.2,16.3,29.95,SSE,159,0.0,0.0,81,0.00,CLR,,0.00,WeatherDisplay:10.37,2013-01-10 10:35:00,
2013-01-10 04:40:00,21.2,16.3,29.94,SSE,158,0.0,0.0,81,0.00,CLR,,0.00,WeatherDisplay:10.37,2013-01-10 10:40:00,
2013-01-10 04:45:00,21.5,16.6,29.94,SE,143,0.0,0.0,81,0.00,CLR,,0.00,WeatherDisplay:10.37,2013-01-10 10:45:00,
2013-01-10 04:50:00,21.9,17.0,29.94,SE,125,0.0,0.0,81,0.00,CLR,,0.00,WeatherDisplay:10.37,2013-01-10 10:50:00,
2013-01-10 04:55:00,22.1,17.2,29.93,SSE,151,0.0,0.0,81,0.00,CLR,,0.00,WeatherDisplay:10.37,2013-01-10 10:55:00,
2013-01-10 05:00:00,22.1,17.2,29.93,SE,143,0.0,0.0,81,0.00,CLR,,0.00,WeatherDisplay:10.37,2013-01-10 11:00:00,
2013-01-10 05:05:00,22.1,17.2,29.93,SE,134,0.0,0.0,81,0.00,CLR,,0.00,WeatherDisplay:10.37,2013-01-10 11:05:00,
2013-01-10 05:10:00,22.1,17.2,29.93,SSE,152,0.0,1.0,81,0.00,CLR,,0.00,WeatherDisplay:10.37,2013-01-10 11:10:00,
2013-01-10 05:15:00,22.1,17.2,29.93,SSE,163,0.0,1.0,81,0.00,CLR,,0.00,WeatherDisplay:10.37,2013-01-10 11:15:00,
2013-01-10 05:20:00,22.5,17.5,29.93,SSE,153,0.0,0.0,81,0.00,CLR,,0.00,WeatherDisplay:10.37,2013-01-10 11:20:00,
2013-01-10 05:25:00,22.5,17.5,29.93,SSE,147,0.0,0.0,81,0.00,CLR,,0.00,WeatherDisplay:10.37,2013-01-10 11:25:00,
2013-01-10 05:30:00,22.6,17.7,29.93,SSE,156,1.0,2.0,81,0.00,CLR,,0.00,WeatherDisplay:10.37,2013-01-10 11:30:00,
2013-01-10 05:35:00,23.0,18.0,29.93,SSE,159,0.0,0.0,81,0.00,CLR,,0.00,WeatherDisplay:10.37,2013-01-10 11:35:00,
2013-01-10 05:40:00,23.1,18.1,29.93,SE,140,0.0,0.0,81,0.00,CLR,,0.00,WeatherDisplay:10.37,2013-01-10 11:40:00,
2013-01-10 05:45:00,23.2,18.2,29.93,SE,135,0.0,0.0,81,0.00,CLR,,0.00,WeatherDisplay:10.37,2013-01-10 11:45:00,
2013-01-10 05:50:00,23.4,18.4,29.92,SE,137,0.0,0.0,81,0.00,CLR,,0.00,WeatherDisplay:10.37,2013-01-10 11:50:00,
2013-01-10 05:55:00,23.4,18.4,29.92,SSE,157,0.0,0.0,81,0.00,CLR,,0.00,WeatherDisplay:10.37,2013-01-10 11:55:00,
2013-01-10 06:00:00,23.5,18.6,29.92,SSE,163,0.0,0.0,81,0.00,CLR,,0.00,WeatherDisplay:10.37,2013-01-10 12:00:00,
2013-01-10 06:05:00,23.7,18.7,29.92,SSE,161,0.0,0.0,81,0.00,CLR,,0.00,WeatherDisplay:10.37,2013-01-10 12:05:00,
2013-01-10 06:10:00,24.1,19.1,29.92,SSE,154,0.0,0.0,81,0.00,CLR,,0.00,WeatherDisplay:10.37,2013-01-10 12:10:00,
2013-01-10 06:15:00,24.6,19.6,29.92,SSE,147,0.0,0.0,81,0.00,CLR,,0.00,WeatherDisplay:10.37,2013-01-10 12:15:00,
2013-01-10 06:20:00,24.8,19.5,29.92,SE,128,0.0,0.0,80,0.00,CLR,,0.00,WeatherDisplay:10.37,2013-01-10 12:20:00,
2013-01-10 06:25:00,25.1,19.8,29.92,SSE,152,3.0,4.0,80,0.00,CLR,,0.00,WeatherDisplay:10.37,2013-01-10 12:25:00,
2013-01-10 06:30:00,25.5,20.5,29.92,SSE,163,0.0,0.0,81,0.00,CLR,,0.00,WeatherDisplay:10.37,2013-01-10 12:30:00,
2013-01-10 06:35:00,25.7,20.7,29.93,SE,146,0.0,0.0,81,0.00,CLR,,0.00,WeatherDisplay:10.37,2013-01-10 12:35:00,
2013-01-10 06:40:00,25.8,20.5,29.93,SE,145,0.0,0.0,80,0.00,CLR,,0.00,WeatherDisplay:10.37,2013-01-10 12:40:00,
2013-01-10 06:45:00,26.1,20.7,29.93,SSE,157,0.0,0.0,80,0.00,CLR,,0.00,WeatherDisplay:10.37,2013-01-10 12:45:00,
2013-01-10 06:50:00,26.2,20.9,29.93,SSE,157,1.0,1.0,80,0.00,CLR,,0.00,WeatherDisplay:10.37,2013-01-10 12:50:00,
2013-01-10 06:55:00,26.4,21.1,29.93,SE,144,0.0,3.0,80,0.00,CLR,,0.00,WeatherDisplay:10.37,2013-01-10 12:55:00,
2013-01-10 07:00:00,26.6,21.0,29.93,SE,145,1.0,2.0,79,0.00,CLR,,0.00,WeatherDisplay:10.37,2013-01-10 13:00:00,
2013-01-10 07:05:00,26.6,21.0,29.93,SSE,152,0.0,2.0,79,0.00,CLR,,0.00,WeatherDisplay:10.37,2013-01-10 13:05:00,
2013-01-10 07:10:00,26.6,21.0,29.92,SSE,161,0.0,6.0,79,0.00,CLR,,0.00,WeatherDisplay:10.37,2013-01-10 13:10:00,
2013-01-10 07:15:00,26.7,21.1,29.92,SSE,163,0.0,1.0,79,0.00,CLR,,0.00,WeatherDisplay:10.37,2013-01-10 13:15:00,
2013-01-10 07:20:00,26.8,21.1,29.92,SSE,156,0.0,1.0,79,0.00,CLR,,0.00,WeatherDisplay:10.37,2013-01-10 13:20:00,
2013-01-10 07:25:00,26.6,21.0,29.92,SSE,158,0.0,0.0,79,0.00,CLR,,0.00,WeatherDisplay:10.37,2013-01-10 13:25:00,
2013-01-10 07:30:00,26.6,20.7,29.92,South,170,1.0,2.0,78,0.00,CLR,,0.00,WeatherDisplay:10.37,2013-01-10 13:30:00,
2013-01-10 07:35:00,26.8,21.1,29.92,SSE,168,0.0,2.0,79,0.00,CLR,,0.00,WeatherDisplay:10.37,2013-01-10 13:35:00,
2013-01-10 07:40:00,26.8,21.1,29.92,SSE,163,0.0,1.0,79,0.00,CLR,,0.00,WeatherDisplay:10.37,2013-01-10 13:40:00,
2013-01-10 07:45:00,27.0,21.3,29.92,SSE,163,0.0,1.0,79,0.00,CLR,,0.00,WeatherDisplay:10.37,2013-01-10 13:45:00,
2013-01-10 07:50:00,26.8,21.1,29.92,SSE,158,0.0,2.0,79,0.00,CLR,,0.00,WeatherDisplay:10.37,2013-01-10 13:50:00,
2013-01-10 07:55:00,27.0,21.3,29.92,SSE,166,0.0,0.0,79,0.00,CLR,,0.00,WeatherDisplay:10.37,2013-01-10 13:55:00,
2013-01-10 08:00:00,27.0,21.3,29.92,SSE,164,0.0,6.0,79,0.00,CLR,,0.00,WeatherDisplay:10.37,2013-01-10 14:00:00,
2013-01-10 08:05:00,27.1,21.2,29.92,SSE,159,0.0,6.0,78,0.00,CLR,,0.00,WeatherDisplay:10.37,2013-01-10 14:05:00,
2013-01-10 08:10:00,27.3,21.4,29.92,SSE,162,7.0,7.0,78,0.00,CLR,,0.00,WeatherDisplay:10.37,2013-01-10 14:10:00,
2013-01-10 08:15:00,27.3,21.4,29.92,SSE,156,0.0,0.0,78,0.00,CLR,,0.00,WeatherDisplay:10.37,2013-01-10 14:15:00,
2013-01-10 08:20:00,27.5,21.5,29.92,SSE,147,0.0,0.0,78,0.00,CLR,,0.00,WeatherDisplay:10.37,2013-01-10 14:20:00,
2013-01-10 08:25:00,27.7,21.7,29.92,SSE,158,0.0,1.0,78,0.00,CLR,,0.00,WeatherDisplay:10.37,2013-01-10 14:25:00,
2013-01-10 08:30:00,28.0,22.1,29.92,SE,141,0.0,0.0,78,0.00,CLR,,0.00,WeatherDisplay:10.37,2013-01-10 14:30:00,
2013-01-10 08:35:00,28.2,22.3,29.92,SE,144,0.0,0.0,78,0.00,CLR,,0.00,WeatherDisplay:10.37,2013-01-10 14:35:00,
2013-01-10 08:40:00,28.7,22.4,29.92,SE,145,0.0,0.0,77,0.00,CLR,,0.00,WeatherDisplay:10.37,2013-01-10 14:40:00,
2013-01-10 08:45:00,29.1,22.8,29.92,SSE,149,2.0,6.0,77,0.00,CLR,,0.00,WeatherDisplay:10.37,2013-01-10 14:45:00,
2013-01-10 08:50:00,29.3,23.0,29.92,SSE,152,0.0,0.0,77,0.00,CLR,,0.00,WeatherDisplay:10.37,2013-01-10 14:50:00,
2013-01-10 08:55:00,29.7,23.3,29.92,SSE,153,0.0,0.0,77,0.00,CLR,,0.00,WeatherDisplay:10.37,2013-01-10 14:55:00,
2013-01-10 09:00:00,29.8,23.2,29.92,SSE,153,0.0,0.0,76,0.00,CLR,,0.00,WeatherDisplay:10.37,2013-01-10 15:00:00,
2013-01-10 09:05:00,30.2,23.5,29.91,SSE,168,0.0,3.0,76,0.00,CLR,,0.00,WeatherDisplay:10.37,2013-01-10 15:05:00,
2013-01-10 09:10:00,30.7,23.7,29.91,SSE,168,0.0,0.0,75,0.00,CLR,,0.00,WeatherDisplay:10.37,2013-01-10 15:10:00,
2013-01-10 09:15:00,31.1,24.1,29.92,SSE,148,0.0,0.0,75,0.00,CLR,,0.00,WeatherDisplay:10.37,2013-01-10 15:15:00,
2013-01-10 09:20:00,31.3,24.3,29.91,South,172,1.0,6.0,75,0.00,CLR,,0.00,WeatherDisplay:10.37,2013-01-10 15:20:00,
2013-01-10 09:25:00,31.9,24.5,29.91,South,176,0.0,0.0,74,0.00,CLR,,0.00,WeatherDisplay:10.37,2013-01-10 15:25:00,
2013-01-10 09:30:00,32.4,24.7,29.91,South,179,0.0,0.0,73,0.00,CLR,,0.00,WeatherDisplay:10.37,2013-01-10 15:30:00,
2013-01-10 09:35:00,32.7,25.0,29.91,South,171,0.0,8.0,73,0.00,CLR,,0.00,WeatherDisplay:10.37,2013-01-10 15:35:00,
2013-01-10 09:40:00,33.2,25.4,29.91,SSE,163,0.0,5.0,73,0.00,CLR,,0.00,WeatherDisplay:10.37,2013-01-10 15:40:00,
2013-01-10 09:45:00,33.6,25.6,29.91,South,171,1.0,5.0,72,0.00,CLR,,0.00,WeatherDisplay:10.37,2013-01-10 15:45:00,
2013-01-10 09:50:00,34.0,25.9,29.91,South,176,0.0,2.0,72,0.00,CLR,,0.00,WeatherDisplay:10.37,2013-01-10 15:50:00,
2013-01-10 09:55:00,34.6,26.2,29.91,South,169,0.0,2.0,71,0.00,CLR,,0.00,WeatherDisplay:10.37,2013-01-10 15:55:00,
2013-01-10 10:00:00,35.1,26.3,29.90,SSE,168,2.0,4.0,70,0.00,CLR,,0.00,WeatherDisplay:10.37,2013-01-10 16:00:00,
2013-01-10 10:05:00,35.4,26.3,29.90,South,174,6.0,6.0,69,0.00,CLR,,0.00,WeatherDisplay:10.37,2013-01-10 16:05:00,
2013-01-10 10:10:00,35.5,26.4,29.90,South,180,7.0,8.0,69,0.00,CLR,,0.00,WeatherDisplay:10.37,2013-01-10 16:10:00,
2013-01-10 10:15:00,36.0,26.4,29.90,South,180,2.0,9.0,68,0.00,CLR,,0.00,WeatherDisplay:10.37,2013-01-10 16:15:00,
2013-01-10 10:20:00,36.3,26.4,29.89,South,180,5.0,9.0,67,0.00,CLR,,0.00,WeatherDisplay:10.37,2013-01-10 16:20:00,
2013-01-10 10:25:00,36.5,26.6,29.89,South,180,3.0,5.0,67,0.00,CLR,,0.00,WeatherDisplay:10.37,2013-01-10 16:25:00,
2013-01-10 10:30:00,36.5,26.2,29.88,South,175,1.0,4.0,66,0.00,CLR,,0.00,WeatherDisplay:10.37,2013-01-10 16:30:00,
2013-01-10 10:35:00,36.9,26.2,29.89,SSE,158,6.0,6.0,65,0.00,CLR,,0.00,WeatherDisplay:10.37,2013-01-10 16:35:00,
2013-01-10 10:40:00,37.2,26.5,29.88,SSE,167,6.0,10.0,65,0.00,CLR,,0.00,WeatherDisplay:10.37,2013-01-10 16:40:00,
2013-01-10 10:45:00,37.4,26.7,29.88,South,171,8.0,10.0,65,0.00,CLR,,0.00,WeatherDisplay:10.37,2013-01-10 16:45:00,
2013-01-10 10:50:00,37.8,26.7,29.88,South,177,10.0,11.0,64,0.00,CLR,,0.00,WeatherDisplay:10.37,2013-01-10 16:50:00,
2013-01-10 10:55:00,38.1,26.6,29.88,SSE,159,7.0,11.0,63,0.00,CLR,,0.00,WeatherDisplay:10.37,2013-01-10 16:55:00,
2013-01-10 11:00:00,38.5,27.0,29.88,SE,143,0.0,7.0,63,0.00,CLR,,0.00,WeatherDisplay:10.37,2013-01-10 17:00:00,
2013-01-10 11:05:00,38.9,27.0,29.87,SSE,152,0.0,5.0,62,0.00,CLR,,0.00,WeatherDisplay:10.37,2013-01-10 17:05:00,
2013-01-10 11:10:00,39.0,27.1,29.86,SSE,151,7.0,7.0,62,0.00,CLR,,0.00,WeatherDisplay:10.37,2013-01-10 17:10:00,
2013-01-10 11:15:00,39.0,27.1,29.86,SSE,148,1.0,2.0,62,0.00,CLR,,0.00,WeatherDisplay:10.37,2013-01-10 17:15:00,
2013-01-10 11:20:00,39.0,26.7,29.86,SSE,158,0.0,8.0,61,0.00,CLR,,0.00,WeatherDisplay:10.37,2013-01-10 17:20:00,
2013-01-10 11:25:00,39.0,26.7,29.86,SSE,153,3.0,8.0,61,0.00,CLR,,0.00,WeatherDisplay:10.37,2013-01-10 17:25:00,
2013-01-10 11:30:00,39.0,26.7,29.86,SSE,154,2.0,5.0,61,0.00,CLR,,0.00,WeatherDisplay:10.37,2013-01-10 17:30:00,
2013-01-10 11:35:00,39.0,26.3,29.85,SSE,163,1.0,5.0,60,0.00,CLR,,0.00,WeatherDisplay:10.37,2013-01-10 17:35:00,
2013-01-10 11:40:00,39.2,26.4,29.85,SSE,158,5.0,6.0,60,0.00,CLR,,0.00,WeatherDisplay:10.37,2013-01-10 17:40:00,
2013-01-10 11:45:00,39.4,26.6,29.84,SSE,154,2.0,3.0,60,0.00,CLR,,0.00,WeatherDisplay:10.37,2013-01-10 17:45:00,
2013-01-10 11:50:00,39.6,26.8,29.84,SSE,151,0.0,0.0,60,0.00,CLR,,0.00,WeatherDisplay:10.37,2013-01-10 17:50:00,
2013-01-10 11:55:00,39.9,27.1,29.83,SSE,147,0.0,0.0,60,0.00,CLR,,0.00,WeatherDisplay:10.37,2013-01-10 17:55:00,
2013-01-10 12:00:00,40.1,26.9,29.83,South,173,1.0,6.0,59,0.00,CLR,,0.00,WeatherDisplay:10.37,2013-01-10 18:00:00,
2013-01-10 12:05:00,40.5,27.2,29.83,South,180,6.0,8.0,59,0.00,CLR,,0.00,WeatherDisplay:10.37,2013-01-10 18:05:00,
2013-01-10 12:10:00,40.5,27.2,29.82,South,172,0.0,2.0,59,0.00,CLR,,0.00,WeatherDisplay:10.37,2013-01-10 18:10:00,
2013-01-10 12:15:00,40.6,27.0,29.82,SSE,162,0.0,2.0,58,0.00,CLR,,0.00,WeatherDisplay:10.37,2013-01-10 18:15:00,
2013-01-10 12:20:00,40.8,27.2,29.82,SSE,154,0.0,0.0,58,0.00,CLR,,0.00,WeatherDisplay:10.37,2013-01-10 18:20:00,
2013-01-10 12:25:00,41.0,26.9,29.81,SSE,149,0.0,0.0,57,0.00,CLR,,0.00,WeatherDisplay:10.37,2013-01-10 18:25:00,
2013-01-10 12:30:00,41.4,27.3,29.81,SSE,151,1.0,1.0,57,0.00,CLR,,0.00,WeatherDisplay:10.37,2013-01-10 18:30:00,
2013-01-10 12:40:00,41.9,27.3,29.80,South,170,1.0,6.0,56,0.00,CLR,,0.00,WeatherDisplay:10.37,2013-01-10 18:40:00,
2013-01-10 12:45:00,42.1,27.5,29.80,SSE,157,0.0,2.0,56,0.00,CLR,,0.00,WeatherDisplay:10.37,2013-01-10 18:45:00,
2013-01-10 12:50:00,42.3,27.7,29.79,SE,137,0.0,3.0,56,0.00,CLR,,0.00,WeatherDisplay:10.37,2013-01-10 18:50:00,
2013-01-10 12:55:00,42.3,27.2,29.79,SE,124,5.0,6.0,55,0.00,CLR,,0.00,WeatherDisplay:10.37,2013-01-10 18:55:00,
2013-01-10 13:00:00,42.3,27.2,29.78,SE,131,0.0,0.0,55,0.00,CLR,,0.00,WeatherDisplay:10.37,2013-01-10 19:00:00,
2013-01-10 13:05:00,42.5,27.5,29.78,SSE,158,7.0,7.0,55,0.00,CLR,,0.00,WeatherDisplay:10.37,2013-01-10 19:05:00,
2013-01-10 13:10:00,42.6,27.1,29.78,SE,144,0.0,0.0,54,0.00,CLR,,0.00,WeatherDisplay:10.37,2013-01-10 19:10:00,
2013-01-10 13:15:00,42.8,27.3,29.78,SSE,152,5.0,6.0,54,0.00,CLR,,0.00,WeatherDisplay:10.37,2013-01-10 19:15:00,
2013-01-10 13:20:00,42.9,27.3,29.77,SSE,150,0.0,5.0,54,0.00,CLR,,0.00,WeatherDisplay:10.37,2013-01-10 19:20:00,
2013-01-10 13:25:00,43.2,27.2,29.76,SE,143,0.0,5.0,53,0.00,CLR,,0.00,WeatherDisplay:10.37,2013-01-10 19:25:00,
2013-01-10 13:30:00,43.5,27.0,29.76,SSE,153,1.0,6.0,52,0.00,CLR,,0.00,WeatherDisplay:10.37,2013-01-10 19:30:00,
2013-01-10 13:35:00,43.7,26.7,29.76,SSE,155,0.0,2.0,51,0.00,CLR,,0.00,WeatherDisplay:10.37,2013-01-10 19:35:00,
2013-01-10 13:40:00,44.1,27.1,29.75,SE,130,0.0,0.0,51,0.00,CLR,,0.00,WeatherDisplay:10.37,2013-01-10 19:40:00,
2013-01-10 13:45:00,44.2,27.7,29.75,SE,124,0.0,0.0,52,0.00,CLR,,0.00,WeatherDisplay:10.37,2013-01-10 19:45:00,
2013-01-10 13:50:00,44.2,27.2,29.75,SE,127,2.0,2.0,51,0.00,CLR,,0.00,WeatherDisplay:10.37,2013-01-10 19:50:00,
2013-01-10 13:55:00,44.1,27.1,29.75,SE,128,0.0,0.0,51,0.00,CLR,,0.00,WeatherDisplay:10.37,2013-01-10 19:55:00,
2013-01-10 14:00:00,44.1,27.1,29.75,ESE,120,1.0,2.0,51,0.00,CLR,,0.00,WeatherDisplay:10.37,2013-01-10 20:00:00,
2013-01-10 14:05:00,43.6,26.7,29.75,ESE,113,0.0,2.0,51,0.00,CLR,,0.00,WeatherDisplay:10.37,2013-01-10 20:05:00,
2013-01-10 14:10:00,43.2,26.3,29.74,ESE,117,0.0,3.0,51,0.00,CLR,,0.00,WeatherDisplay:10.37,2013-01-10 20:10:00,
2013-01-10 14:15:00,42.8,26.4,29.75,SE,133,2.0,6.0,52,0.00,CLR,,0.00,WeatherDisplay:10.37,2013-01-10 20:15:00,
2013-01-10 14:20:00,42.4,26.4,29.75,SE,134,1.0,1.0,53,0.00,CLR,,0.00,WeatherDisplay:10.37,2013-01-10 20:20:00,
2013-01-10 14:25:00,42.0,26.1,29.74,ESE,121,0.0,0.0,53,0.00,CLR,,0.00,WeatherDisplay:10.37,2013-01-10 20:25:00,
2013-01-10 14:30:00,41.9,26.4,29.74,SE,128,0.0,0.0,54,0.00,CLR,,0.00,WeatherDisplay:10.37,2013-01-10 20:30:00,
2013-01-10 14:35:00,41.5,25.7,29.74,ESE,113,6.0,6.0,53,0.00,CLR,,0.00,WeatherDisplay:10.37,2013-01-10 20:35:00,
2013-01-10 14:40:00,41.2,25.3,29.74,ESE,106,5.0,6.0,53,0.00,CLR,,0.00,WeatherDisplay:10.37,2013-01-10 20:40:00,
2013-01-10 14:45:00,40.8,25.0,29.74,ESE,111,3.0,4.0,53,0.00,CLR,,0.00,WeatherDisplay:10.37,2013-01-10 20:45:00,
2013-01-10 14:50:00,40.6,25.2,29.74,ESE,117,0.0,6.0,54,0.00,CLR,,0.00,WeatherDisplay:10.37,2013-01-10 20:50:00,
2013-01-10 14:55:00,40.5,25.1,29.74,SE,140,3.0,6.0,54,0.00,CLR,,0.00,WeatherDisplay:10.37,2013-01-10 20:55:00,
2013-01-10 15:00:00,40.1,24.8,29.73,SE,141,1.0,5.0,54,0.00,CLR,,0.00,WeatherDisplay:10.37,2013-01-10 21:00:00,
2013-01-10 15:05:00,40.1,24.8,29.73,SE,128,1.0,5.0,54,0.00,CLR,,0.00,WeatherDisplay:10.37,2013-01-10 21:05:00,
2013-01-10 15:10:00,39.9,24.6,29.73,ESE,120,0.0,0.0,54,0.00,CLR,,0.00,WeatherDisplay:10.37,2013-01-10 21:10:00,
2013-01-10 15:15:00,39.9,24.6,29.73,SE,125,0.0,0.0,54,0.00,CLR,,0.00,WeatherDisplay:10.37,2013-01-10 21:15:00,
2013-01-10 15:20:00,39.9,24.6,29.73,SE,127,0.0,1.0,54,0.00,CLR,,0.00,WeatherDisplay:10.37,2013-01-10 21:20:00,
2013-01-10 15:25:00,39.4,24.1,29.73,SE,124,0.0,0.0,54,0.00,CLR,,0.00,WeatherDisplay:10.37,2013-01-10 21:25:00,
2013-01-10 15:30:00,39.4,24.1,29.73,ESE,123,0.0,0.0,54,0.00,CLR,,0.00,WeatherDisplay:10.37,2013-01-10 21:30:00,
2013-01-10 15:35:00,39.1,23.9,29.73,SE,130,2.0,2.0,54,0.00,CLR,,0.00,WeatherDisplay:10.37,2013-01-10 21:35:00,
2013-01-10 15:40:00,39.0,23.8,29.73,SE,133,1.0,5.0,54,0.00,CLR,,0.00,WeatherDisplay:10.37,2013-01-10 21:40:00,
2013-01-10 15:45:00,38.8,23.6,29.73,SE,125,3.0,5.0,54,0.00,CLR,,0.00,WeatherDisplay:10.37,2013-01-10 21:45:00,
2013-01-10 15:50:00,38.7,23.4,29.73,ESE,115,0.0,4.0,54,0.00,CLR,,0.00,WeatherDisplay:10.37,2013-01-10 21:50:00,
2013-01-10 15:55:00,38.7,23.4,29.71,ESE,105,0.0,3.0,54,0.00,CLR,,0.00,WeatherDisplay:10.37,2013-01-10 21:55:00,
2013-01-10 16:00:00,38.7,23.4,29.71,ESE,112,3.0,6.0,54,0.00,CLR,,0.00,WeatherDisplay:10.37,2013-01-10 22:00:00,
2013-01-10 16:05:00,38.5,23.7,29.71,ESE,121,0.0,3.0,55,0.00,CLR,,0.00,WeatherDisplay:10.37,2013-01-10 22:05:00,
2013-01-10 16:10:00,38.3,23.5,29.72,SSE,163,3.0,4.0,55,0.00,CLR,,0.00,WeatherDisplay:10.37,2013-01-10 22:10:00,
2013-01-10 16:15:00,38.3,24.0,29.71,SSE,155,0.0,0.0,56,0.00,CLR,,0.00,WeatherDisplay:10.37,2013-01-10 22:15:00,
2013-01-10 16:20:00,38.3,24.0,29.71,SE,141,0.0,0.0,56,0.00,CLR,,0.00,WeatherDisplay:10.37,2013-01-10 22:20:00,
2013-01-10 16:25:00,38.3,24.0,29.71,SE,134,0.0,0.0,56,0.00,CLR,,0.00,WeatherDisplay:10.37,2013-01-10 22:25:00,
2013-01-10 16:30:00,38.3,24.0,29.71,ESE,118,0.0,0.0,56,0.00,CLR,,0.00,WeatherDisplay:10.37,2013-01-10 22:30:00,
2013-01-10 16:35:00,38.1,23.8,29.70,ESE,111,0.0,0.0,56,0.00,CLR,,0.00,WeatherDisplay:10.37,2013-01-10 22:35:00,
2013-01-10 16:45:00,37.6,23.3,29.69,ESE,118,0.0,0.0,56,0.00,CLR,,0.00,WeatherDisplay:10.37,2013-01-10 22:45:00,
2013-01-10 16:50:00,37.6,23.7,29.69,ESE,107,0.0,6.0,57,0.00,CLR,,0.00,WeatherDisplay:10.37,2013-01-10 22:50:00,
2013-01-10 16:55:00,37.6,23.7,29.68,ESE,122,0.0,6.0,57,0.00,CLR,,0.00,WeatherDisplay:10.37,2013-01-10 22:55:00,
2013-01-10 17:00:00,37.4,23.5,29.68,SE,128,0.0,0.0,57,0.00,CLR,,0.00,WeatherDisplay:10.37,2013-01-10 23:00:00,
2013-01-10 17:05:00,37.2,23.4,29.67,SE,126,0.0,0.0,57,0.00,CLR,,0.00,WeatherDisplay:10.37,2013-01-10 23:05:00,
2013-01-10 17:10:00,37.2,23.8,29.67,ESE,123,2.0,3.0,58,0.00,CLR,,0.00,WeatherDisplay:10.37,2013-01-10 23:10:00,
2013-01-10 17:15:00,37.2,23.8,29.67,ESE,110,0.0,0.0,58,0.00,CLR,,0.00,WeatherDisplay:10.37,2013-01-10 23:15:00,
2013-01-10 17:20:00,37.2,23.8,29.66,ESE,122,0.0,6.0,58,0.00,CLR,,0.00,WeatherDisplay:10.37,2013-01-10 23:20:00,
2013-01-10 17:25:00,37.2,23.8,29.66,SE,131,0.0,6.0,58,0.00,CLR,,0.00,WeatherDisplay:10.37,2013-01-10 23:25:00,
2013-01-10 17:30:00,37.2,23.8,29.66,SE,142,9.0,9.0,58,0.00,CLR,,0.00,WeatherDisplay:10.37,2013-01-10 23:30:00,
2013-01-10 17:40:00,37.2,23.8,29.65,ESE,104,0.0,3.0,58,0.00,CLR,,0.00,WeatherDisplay:10.37,2013-01-10 23:40:00,
2013-01-10 17:45:00,37.2,23.8,29.65,ESE,116,2.0,3.0,58,0.00,CLR,,0.00,WeatherDisplay:10.37,2013-01-10 23:45:00,
2013-01-10 17:50:00,37.0,24.0,29.64,SE,132,6.0,6.0,59,0.00,CLR,,0.00,WeatherDisplay:10.37,2013-01-10 23:50:00,
2013-01-10 17:55:00,36.9,24.3,29.64,SE,142,0.0,6.0,60,0.00,CLR,,0.00,WeatherDisplay:10.37,2013-01-10 23:55:00,
2013-01-10 18:00:00,36.9,24.7,29.64,SE,137,0.0,2.0,61,0.00,CLR,,0.00,WeatherDisplay:10.37,2013-01-11 00:00:00,
2013-01-10 18:05:00,36.5,24.4,29.64,SE,127,0.0,5.0,61,0.00,CLR,,0.00,WeatherDisplay:10.37,2013-01-11 00:05:00,
2013-01-10 18:10:00,36.3,24.9,29.63,SE,124,1.0,2.0,63,0.00,CLR,,0.00,WeatherDisplay:10.37,2013-01-11 00:10:00,
2013-01-10 18:15:00,36.1,25.1,29.63,ESE,122,3.0,7.0,64,0.00,CLR,,0.00,WeatherDisplay:10.37,2013-01-11 00:15:00,
2013-01-10 18:20:00,35.9,25.2,29.62,ESE,119,0.0,3.0,65,0.00,CLR,,0.00,WeatherDisplay:10.37,2013-01-11 00:20:00,
2013-01-10 18:25:00,35.4,25.2,29.62,SE,129,2.0,6.0,66,0.02,RA,,0.02,WeatherDisplay:10.37,2013-01-11 00:25:00,
2013-01-10 18:30:00,35.4,25.9,29.62,SE,138,0.0,0.0,68,0.00,RA,,0.02,WeatherDisplay:10.37,2013-01-11 00:30:00,
2013-01-10 18:35:00,35.4,25.9,29.62,SE,130,1.0,6.0,68,0.00,,,0.02,WeatherDisplay:10.37,2013-01-11 00:35:00,
2013-01-10 18:40:00,35.2,26.1,29.61,ESE,115,2.0,6.0,69,0.00,CLR,,0.02,WeatherDisplay:10.37,2013-01-11 00:40:00,
2013-01-10 18:45:00,35.1,26.3,29.61,ESE,112,0.0,0.0,70,0.00,CLR,,0.02,WeatherDisplay:10.37,2013-01-11 00:45:00,
2013-01-10 18:50:00,35.1,26.6,29.60,ESE,113,6.0,6.0,71,0.00,CLR,,0.02,WeatherDisplay:10.37,2013-01-11 00:50:00,
2013-01-10 18:55:00,34.9,26.4,29.60,ESE,113,1.0,5.0,71,0.00,CLR,,0.02,WeatherDisplay:10.37,2013-01-11 00:55:00,
2013-01-10 19:00:00,34.9,26.8,29.60,ESE,112,1.0,5.0,72,0.02,RA,,0.05,WeatherDisplay:10.37,2013-01-11 01:00:00,
2013-01-10 19:05:00,34.7,26.9,29.60,SE,129,3.0,6.0,73,0.00,RA,,0.05,WeatherDisplay:10.37,2013-01-11 01:05:00,
2013-01-10 19:10:00,34.7,26.9,29.60,SE,129,2.0,6.0,73,0.00,,,0.05,WeatherDisplay:10.37,2013-01-11 01:10:00,
2013-01-10 19:15:00,34.7,26.9,29.59,ESE,120,0.0,1.0,73,0.00,CLR,,0.05,WeatherDisplay:10.37,2013-01-11 01:15:00,
2013-01-10 19:20:00,34.7,27.3,29.59,ESE,113,0.0,0.0,74,0.00,CLR,,0.05,WeatherDisplay:10.37,2013-01-11 01:20:00,
2013-01-10 19:25:00,34.7,27.3,29.58,ESE,115,0.0,0.0,74,0.02,RA,,0.07,WeatherDisplay:10.37,2013-01-11 01:25:00,
2013-01-10 19:30:00,34.5,27.4,29.57,ESE,113,0.0,0.0,75,0.00,RA,,0.07,WeatherDisplay:10.37,2013-01-11 01:30:00,
2013-01-10 19:35:00,34.3,27.2,29.57,East,91,0.0,0.0,75,0.02,RA,,0.09,WeatherDisplay:10.37,2013-01-11 01:35:00,
2013-01-10 19:40:00,34.3,27.6,29.57,ESE,106,3.0,4.0,76,0.00,RA,,0.09,WeatherDisplay:10.37,2013-01-11 01:40:00,
2013-01-10 19:45:00,34.2,27.4,29.57,SE,129,5.0,10.0,76,0.00,CLR,,0.09,WeatherDisplay:10.37,2013-01-11 01:45:00,
2013-01-10 19:50:00,34.2,27.4,29.57,SE,130,0.0,4.0,76,0.00,CLR,,0.09,WeatherDisplay:10.37,2013-01-11 01:50:00,
2013-01-10 19:55:00,34.2,27.7,29.57,SE,128,3.0,6.0,77,0.00,CLR,,0.09,WeatherDisplay:10.37,2013-01-11 01:55:00,
2013-01-10 20:00:00,34.2,27.7,29.57,SE,132,0.0,0.0,77,0.00,CLR,,0.09,WeatherDisplay:10.37,2013-01-11 02:00:00,
2013-01-10 20:05:00,34.1,27.9,29.56,SE,125,5.0,9.0,78,0.00,CLR,,0.09,WeatherDisplay:10.37,2013-01-11 02:05:00,
2013-01-10 20:10:00,34.0,28.2,29.55,SE,126,0.0,0.0,79,0.02,RA,,0.12,WeatherDisplay:10.37,2013-01-11 02:10:00,
2013-01-10 20:15:00,34.0,28.2,29.54,SE,134,5.0,7.0,79,0.00,RA,,0.12,WeatherDisplay:10.37,2013-01-11 02:15:00,
2013-01-10 20:20:00,33.8,28.0,29.54,East,100,0.0,0.0,79,0.00,,,0.12,WeatherDisplay:10.37,2013-01-11 02:20:00,
2013-01-10 20:30:00,33.8,28.3,29.53,SE,129,2.0,2.0,80,0.00,RA,,0.14,WeatherDisplay:10.37,2013-01-11 02:30:00,
2013-01-10 20:35:00,33.8,28.3,29.53,SE,130,0.0,8.0,80,0.00,,,0.14,WeatherDisplay:10.37,2013-01-11 02:35:00,
2013-01-10 20:40:00,33.8,28.6,29.53,SE,126,1.0,2.0,81,0.00,CLR,,0.14,WeatherDisplay:10.37,2013-01-11 02:40:00,
2013-01-10 20:45:00,33.8,28.6,29.52,ESE,113,2.0,3.0,81,0.00,CLR,,0.14,WeatherDisplay:10.37,2013-01-11 02:45:00,
2013-01-10 20:50:00,33.8,28.6,29.52,ESE,120,0.0,3.0,81,0.00,CLR,,0.14,WeatherDisplay:10.37,2013-01-11 02:50:00,
2013-01-10 20:55:00,33.8,28.6,29.52,SE,127,1.0,2.0,81,0.00,CLR,,0.14,WeatherDisplay:10.37,2013-01-11 02:55:00,
2013-01-10 21:00:00,33.8,28.6,29.52,ESE,110,0.0,2.0,81,0.00,CLR,,0.14,WeatherDisplay:10.37,2013-01-11 03:00:00,
2013-01-10 21:05:00,33.8,28.9,29.52,East,101,0.0,4.0,82,0.00,CLR,,0.14,WeatherDisplay:10.37,2013-01-11 03:05:00,
2013-01-10 21:10:00,33.8,28.9,29.52,SE,130,2.0,4.0,82,0.02,RA,,0.16,WeatherDisplay:10.37,2013-01-11 03:10:00,
2013-01-10 21:15:00,33.8,28.9,29.51,ESE,123,1.0,6.0,82,0.00,RA,,0.16,WeatherDisplay:10.37,2013-01-11 03:15:00,
2013-01-10 21:20:00,33.8,28.9,29.51,ESE,117,0.0,1.0,82,0.02,RA,,0.19,WeatherDisplay:10.37,2013-01-11 03:20:00,
2013-01-10 21:25:00,33.8,28.9,29.50,SE,135,2.0,4.0,82,0.00,RA,,0.19,WeatherDisplay:10.37,2013-01-11 03:25:00,
2013-01-10 21:30:00,33.8,28.9,29.50,SE,143,0.0,4.0,82,0.00,CLR,,0.19,WeatherDisplay:10.37,2013-01-11 03:30:00,
2013-01-10 21:35:00,33.8,28.9,29.50,SSE,148,2.0,2.0,82,0.00,CLR,,0.19,WeatherDisplay:10.37,2013-01-11 03:35:00,
2013-01-10 21:40:00,33.8,28.9,29.49,SE,138,1.0,2.0,82,0.00,CLR,,0.19,WeatherDisplay:10.37,2013-01-11 03:40:00,
2013-01-10 21:45:00,33.8,28.9,29.49,ESE,123,0.0,2.0,82,0.00,CLR,,0.19,WeatherDisplay:10.37,2013-01-11 03:45:00,
2013-01-10 21:50:00,33.8,29.2,29.49,ESE,107,2.0,2.0,83,0.00,CLR,,0.19,WeatherDisplay:10.37,2013-01-11 03:50:00,
2013-01-10 21:55:00,33.8,29.2,29.48,East,86,1.0,2.0,83,0.00,CLR,,0.19,WeatherDisplay:10.37,2013-01-11 03:55:00,
2013-01-10 22:00:00,33.8,29.2,29.48,ESE,107,0.0,3.0,83,0.00,CLR,,0.19,WeatherDisplay:10.37,2013-01-11 04:00:00,
2013-01-10 22:05:00,33.8,29.2,29.47,SE,129,7.0,7.0,83,0.00,CLR,,0.19,WeatherDisplay:10.37,2013-01-11 04:05:00,
2013-01-10 22:10:00,33.8,29.2,29.47,SE,137,0.0,6.0,83,0.00,CLR,,0.19,WeatherDisplay:10.37,2013-01-11 04:10:00,
2013-01-10 22:15:00,33.8,29.2,29.47,SE,124,0.0,3.0,83,0.00,CLR,,0.19,WeatherDisplay:10.37,2013-01-11 04:15:00,
2013-01-10 22:20:00,34.0,29.4,29.47,ESE,110,1.0,1.0,83,0.00,CLR,,0.19,WeatherDisplay:10.37,2013-01-11 04:20:00,
2013-01-10 22:25:00,34.0,29.4,29.47,ESE,108,0.0,3.0,83,0.00,CLR,,0.19,WeatherDisplay:10.37,2013-01-11 04:25:00,
2013-01-10 22:30:00,34.0,29.4,29.46,SE,136,0.0,3.0,83,0.00,CLR,,0.19,WeatherDisplay:10.37,2013-01-11 04:30:00,
2013-01-10 22:35:00,34.2,29.5,29.47,SE,137,0.0,7.0,83,0.00,CLR,,0.19,WeatherDisplay:10.37,2013-01-11 04:35:00,
2013-01-10 22:40:00,34.2,29.5,29.46,SE,137,0.0,7.0,83,0.00,CLR,,0.19,WeatherDisplay:10.37,2013-01-11 04:40:00,
2013-01-10 22:45:00,34.2,29.5,29.46,SE,139,2.0,3.0,83,0.00,CLR,,0.19,WeatherDisplay:10.37,2013-01-11 04:45:00,
2013-01-10 22:50:00,34.2,29.5,29.45,SSE,154,0.0,3.0,83,0.00,CLR,,0.19,WeatherDisplay:10.37,2013-01-11 04:50:00,
2013-01-10 22:55:00,34.2,29.5,29.45,SSE,164,0.0,0.0,83,0.00,CLR,,0.19,WeatherDisplay:10.37,2013-01-11 04:55:00,
2013-01-10 23:00:00,34.2,29.5,29.45,SSE,158,0.0,0.0,83,0.00,CLR,,0.19,WeatherDisplay:10.37,2013-01-11 05:00:00,
2013-01-10 23:05:00,34.0,29.4,29.45,SSE,148,0.0,0.0,83,0.00,CLR,,0.19,WeatherDisplay:10.37,2013-01-11 05:05:00,
2013-01-10 23:10:00,34.2,29.5,29.45,SE,144,0.0,0.0,83,0.00,CLR,,0.19,WeatherDisplay:10.37,2013-01-11 05:10:00,
2013-01-10 23:15:00,34.0,29.4,29.45,SSE,152,0.0,6.0,83,0.00,CLR,,0.19,WeatherDisplay:10.37,2013-01-11 05:15:00,
2013-01-10 23:20:00,34.0,29.4,29.45,SSE,160,0.0,0.0,83,0.00,CLR,,0.19,WeatherDisplay:10.37,2013-01-11 05:20:00,
2013-01-10 23:25:00,34.0,29.4,29.45,SE,146,0.0,0.0,83,0.00,CLR,,0.19,WeatherDisplay:10.37,2013-01-11 05:25:00,
2013-01-10 23:30:00,34.2,29.5,29.44,SE,127,0.0,0.0,83,0.00,CLR,,0.19,WeatherDisplay:10.37,2013-01-11 05:30:00,
2013-01-10 23:35:00,34.2,29.8,29.44,SE,130,0.0,1.0,84,0.00,CLR,,0.19,WeatherDisplay:10.37,2013-01-11 05:35:00,
2013-01-10 23:40:00,34.2,29.8,29.44,SE,144,1.0,2.0,84,0.00,CLR,,0.19,WeatherDisplay:10.37,2013-01-11 05:40:00,
2013-01-10 23:45:00,34.2,29.8,29.44,SE,141,0.0,2.0,84,0.00,CLR,,0.19,WeatherDisplay:10.37,2013-01-11 05:45:00,
2013-01-10 23:50:00,34.2,29.8,29.44,SE,135,0.0,3.0,84,0.00,CLR,,0.19,WeatherDisplay:10.37,2013-01-11 05:50:00,
2013-01-10 23:55:00,34.2,29.8,29.44,SSE,147,0.0,3.0,84,0.00,CLR,,0.19,WeatherDisplay:10.37,2013-01-11 05:55:00,